Date,TemperatureHighF,TemperatureAvgF,TemperatureLowF,DewpointHighF,DewpointAvgF,DewpointLowF,HumidityHigh,HumidityAvg,HumidityLow,PressureMaxIn,PressureMinIn,WindSpeedMaxMPH,WindSpeedAvgMPH,GustSpeedMaxMPH,PrecipitationSumIn
2013-8-1,73,61,50,58,54,49,98,79,55,29.86,29.77,9,1,13,0.00
2013-8-2,74,62,51,58,54,49,99,77,46,29.90,29.71,9,1,11,0.03
2013-8-3,72,60,47,55,51,46,99,76,44,30.09,29.90,9,1,13,0.00
2013-8-4,71,58,43,54,48,42,99,75,44,30.17,30.00,6,0,8,0.00
2013-8-5,67,58,51,65,57,49,99,95,89,30.00,29.74,3,0,6,0.70
2013-8-6,75,66,59,65,61,58,99,86,60,29.76,29.62,7,1,9,0.49
2013-8-7,72,62,49,61,56,47,99,83,47,29.93,29.54,10,1,10,0.04
2013-8-8,76,59,44,58,51,43,99,79,44,29.98,29.89,8,1,10,0.00
2013-8-9,72,62,56,57,53,48,97,75,47,29.99,29.85,12,1,16,0.01
2013-8-10,69,60,52,58,54,51,97,82,59,30.06,29.99,6,0,7,0.00
2013-8-11,76,61,46,59,53,44,99,79,46,30.03,29.91,7,0,8,0.00
2013-8-12,74,62,47,61,55,44,99,81,50,29.97,29.84,10,1,13,0.00
2013-8-13,66,53,42,52,46,40,98,79,52,30.12,29.97,8,0,8,0.00
2013-8-14,69,52,37,51,45,36,98,78,48,30.16,30.04,6,0,7,0.00
2013-8-15,77,60,43,57,50,42,97,74,42,30.05,29.98,11,1,11,0.00
2013-8-16,81,63,46,60,53,45,99,75,36,30.09,30.03,6,0,6,0.00
2013-8-17,81,65,50,60,55,48,99,74,43,30.14,30.04,7,1,9,0.00
2013-8-18,81,65,50,61,56,48,98,75,46,30.09,29.95,8,1,12,0.00
2013-8-19,80,68,58,67,62,56,92,80,64,29.96,29.84,10,1,12,0.00
2013-8-20,86,72,63,71,66,62,96,83,59,29.89,29.79,9,1,14,0.00
2013-8-21,86,74,62,75,68,61,98,83,66,29.89,29.71,11,1,14,0.00
2013-8-22,82,68,54,61,56,48,98,70,32,30.06,29.88,5,0,7,0.00
2013-8-23,81,63,48,61,54,46,97,75,48,30.11,30.03,5,1,8,0.00
2013-8-24,82,70,55,67,62,54,97,78,53,30.12,29.95,5,2,15,0.00
2013-8-25,92,80,71,76,72,67,91,76,56,29.97,29.83,13,2,13,0.00
2013-8-26,86,75,66,76,71,65,99,89,71,29.93,29.80,8,1,13,0.99
2013-8-27,83,74,68,78,72,67,100,95,83,29.84,29.69,3,0,4,1.02
2013-8-28,86,73,65,70,66,61,100,83,43,29.93,29.79,3,0,4,0.01
2013-8-29,82,71,63,71,67,63,99,90,64,29.97,29.75,9,1,9,3.13
2013-8-30,79,70,57,71,66,56,99,88,63,29.82,29.69,7,1,9,0.00
2013-8-31,83,66,54,67,61,53,100,86,53,29.82,29.67,4,0,5,0.01